A- A+ FrançaisEnglishEspañol中国

Services sur Internet Soldes sur Internet Des idées de cadeaux Météo Météo aéro

La météo à : Autours de vous Besancon-La-VezeTarbes-Lourdes-PyrénéesPau-PyrénéesAlbertville

manche à air

La météo aéronautique pour les pilotes, la préparation du vol avec les METAR (METeorological Aerodrome Report, message d'observation des conditions météorologiques pour l'aviation) et Les TAF (Terminal Aerodrome Forecast : message de prévision à court terme des conditions météorologiques pour l'aviation). Et les autres ressources comme les VAC (Visual Approch Chart) et les NOTAM (Notice To Airman) pour préprer les vols.

Aéroport Hamburg (Allemagne) / OACI EDDH/ IATA HAM

L'altitude de l'aéroport Hamburg est de 16 m = 52 ft. Il est situé à proximité de Hamburg (Allemagne). La météo générale à 5 jours est disponible pour Fuhlsbuettel situé à 1.9 km.

METAR de l'aéroport Hamburg - EDDH

EDDH 110050Z 19016G26KT 150V210 9999 BKN036 07/M03 Q1010 NOSIG

Décodage du METAR de l'aéroport Hamburg (DE)

METAR émis par EDDH le mercredi 11 décembre 2019 à 00:50 heure TU, il y a 5 minutes.

La visibilité est de supérieure à 10 km = supérieure à 6.2 sm.

La température est de 7°C = 45 °F et le point rosée est de -3°C = 27 °F . Ce qui correspond à 49% d'humidité relative.

Le QNH est de 1010 hPa = 29.83 inHg

Vent de 16 kt = 30 km/h avec des rafales à 26 kt = 48 km/h, orienté à 190°.

Nuages : Couverture nuageuse fragmentée à 3600 ft = 1100 mètres.

Aucun changement significatif dans les deux heures à venir

TAF de l'aéroport Hamburg - EDDH

EDDH 102300Z 1100/1206 18015KT 9999 BKN040

EDDH 102300Z 1100/1206 18015KT 9999 couverture nuageuse fragmentée à 040

Aéroport à proximité de Hamburg

Météo générale à 5 jours à Fuhlsbuettel (1.9 km)Aéroport Hamburg - Finkenwerder (15 km)Aéroport Ahrenlohe (18 km)Aéroport Uetersen (19 km)Aéroport Hartenholm (32 km)Aéroport Stade (33 km)Aéroport Wahlstedt (41 km)

VAC de l'aéroport Hamburg - EDDH

La carte d'approche à vue (VAC Visual Approah Chart) est fournie sans aucune garantie de son actualité. Le pilote est le seul responsable de la vérification de sa validité avant de l'utiliser opérationnellement pour préparer un vol ou l'utiliser lors de sa navigation.

VAC de EDDH

Vue aérienne de l'aéroport Hamburg

NOTAM de l'aéroport Hamburg

Les NOTAM sont fournis sans aucune garantie de leur actualité. Le pilote est le seul responsable de la vérification de sa validité avant de l'utiliser opérationnellement pour préparer un vol ou l'utiliser lors de sa navigation.

Pas de NOTAM

Sources des données